createdAt,value
2023-05-10T00:00:54.576Z,8961.00
2023-05-10T00:01:54.624Z,8971.00
2023-05-10T00:02:54.688Z,8966.00
2023-05-10T00:03:54.664Z,8960.00
2023-05-10T00:04:54.682Z,8957.00
2023-05-10T00:05:54.686Z,9000.00
2023-05-10T00:06:54.738Z,9002.00
2023-05-10T00:07:54.818Z,8979.00
2023-05-10T00:08:54.794Z,8944.00
2023-05-10T00:09:54.811Z,8890.00
2023-05-10T00:10:54.946Z,8916.00
2023-05-10T00:11:54.917Z,8916.00
2023-05-10T00:12:55.014Z,8840.00
2023-05-10T00:13:55.036Z,8856.00
2023-05-10T00:14:55.043Z,8876.00
2023-05-10T00:15:55.121Z,8780.00
2023-05-10T00:16:55.315Z,8751.00
2023-05-10T00:17:55.337Z,8719.00
2023-05-10T00:18:55.296Z,8724.00
2023-05-10T00:19:55.339Z,8686.00
2023-05-10T00:20:55.360Z,8727.00
2023-05-10T00:21:55.362Z,8736.00
2023-05-10T00:22:55.428Z,8745.00
2023-05-10T00:23:55.459Z,8674.00
2023-05-10T00:24:55.511Z,8688.00
2023-05-10T00:25:55.506Z,8698.00
2023-05-10T00:26:55.562Z,8695.00
2023-05-10T00:27:55.629Z,8644.00
2023-05-10T00:28:55.612Z,8573.00
2023-05-10T00:29:55.665Z,8588.00
2023-05-10T00:30:55.627Z,8559.00
2023-05-10T00:31:55.662Z,8544.00
2023-05-10T00:32:55.639Z,8539.00
2023-05-10T00:33:55.612Z,8525.00
2023-05-10T00:34:55.646Z,8535.00
2023-05-10T00:35:55.604Z,8494.00
2023-05-10T00:36:55.664Z,8444.00
2023-05-10T00:37:55.666Z,8442.00
2023-05-10T00:38:55.645Z,8437.00
2023-05-10T00:39:55.686Z,8422.00
2023-05-10T00:40:55.695Z,8410.00
2023-05-10T00:41:55.744Z,8367.00
2023-05-10T00:42:55.882Z,8355.00
2023-05-10T00:43:55.909Z,8322.00
2023-05-10T00:44:55.888Z,8298.00
2023-05-10T00:45:55.978Z,8249.00
2023-05-10T00:46:55.989Z,8189.00
2023-05-10T00:47:56.143Z,8164.00
2023-05-10T00:48:56.092Z,8115.00
2023-05-10T00:49:56.144Z,8074.00
2023-05-10T00:50:56.158Z,8104.00
2023-05-10T00:51:56.174Z,8121.00
2023-05-10T00:52:56.224Z,8046.00
2023-05-10T00:53:56.226Z,8067.00
2023-05-10T00:54:56.276Z,8081.00
2023-05-10T00:55:56.261Z,8043.00
2023-05-10T00:56:56.810Z,8080.00
2023-05-10T00:57:56.282Z,7990.00
2023-05-10T00:58:56.282Z,7935.00
2023-05-10T00:59:56.389Z,7948.00
2023-05-10T01:00:56.465Z,7993.00
2023-05-10T01:01:56.447Z,7907.00
2023-05-10T01:02:56.580Z,7821.00
2023-05-10T01:03:56.466Z,7779.00
2023-05-10T01:04:56.586Z,7720.00
2023-05-10T01:05:56.582Z,7659.00
2023-05-10T01:06:56.664Z,7642.00
2023-05-10T01:07:56.696Z,7637.00
2023-05-10T01:08:56.714Z,7568.00
2023-05-10T01:09:56.761Z,7540.00
2023-05-10T01:10:56.690Z,7552.00
2023-05-10T01:11:56.782Z,7486.00
2023-05-10T01:12:56.920Z,7485.00
2023-05-10T01:13:56.875Z,7600.00
2023-05-10T01:14:56.956Z,7622.00
2023-05-10T01:15:57.078Z,7629.00
2023-05-10T01:16:57.070Z,7637.00
2023-05-10T01:17:57.147Z,7657.00
2023-05-10T01:18:57.166Z,7618.00
2023-05-10T01:19:57.305Z,7582.00
2023-05-10T01:20:57.362Z,7458.00
2023-05-10T01:21:57.386Z,7386.00
2023-05-10T01:22:57.443Z,7450.00
2023-05-10T01:23:57.508Z,7540.00
2023-05-10T01:24:57.551Z,7552.00
2023-05-10T01:25:57.507Z,7567.00
2023-05-10T01:26:57.546Z,7597.00
2023-05-10T01:27:57.561Z,7625.00
2023-05-10T01:28:57.550Z,7539.00
2023-05-10T01:30:13.639Z,7594.00
2023-05-10T01:30:58.589Z,7596.00
2023-05-10T01:31:57.576Z,7623.00
2023-05-10T01:32:57.596Z,7709.00
2023-05-10T01:33:57.558Z,7826.00
2023-05-10T01:34:57.545Z,7904.00
2023-05-10T01:35:57.513Z,7882.00
2023-05-10T01:36:57.493Z,7871.00
2023-05-10T01:37:57.544Z,7903.00
2023-05-10T01:38:57.536Z,7929.00
2023-05-10T01:39:57.484Z,7867.00
2023-05-10T01:40:57.502Z,7796.00
2023-05-10T01:41:57.485Z,7769.00
2023-05-10T01:42:57.509Z,7699.00
2023-05-10T01:43:57.447Z,7675.00
2023-05-10T01:44:57.468Z,7641.00
2023-05-10T01:45:57.452Z,7583.00
2023-05-10T01:46:57.670Z,7630.00
2023-05-10T01:47:57.580Z,7709.00
2023-05-10T01:48:57.461Z,7735.00
2023-05-10T01:49:57.478Z,7814.00
2023-05-10T01:50:57.428Z,8092.00
2023-05-10T01:51:57.425Z,8098.00
2023-05-10T01:52:57.411Z,7939.00
2023-05-10T01:53:57.409Z,7898.00
2023-05-10T01:54:57.401Z,7864.00
2023-05-10T01:55:57.405Z,7815.00
2023-05-10T01:56:57.350Z,7805.00
2023-05-10T01:57:57.378Z,7756.00
2023-05-10T01:58:57.350Z,7685.00
2023-05-10T01:59:57.372Z,7583.00
2023-05-10T02:00:57.454Z,7543.00
2023-05-10T02:01:57.384Z,7504.00
2023-05-10T02:02:57.538Z,7499.00
2023-05-10T02:03:57.499Z,7456.00
2023-05-10T02:04:57.472Z,7384.00
2023-05-10T02:05:57.552Z,7490.00
2023-05-10T02:06:57.519Z,7553.00
2023-05-10T02:07:57.593Z,7597.00
2023-05-10T02:08:57.589Z,7589.00
2023-05-10T02:09:57.612Z,7598.00
2023-05-10T02:10:57.648Z,7659.00
2023-05-10T02:11:57.678Z,7644.00
2023-05-10T02:12:57.733Z,7670.00
2023-05-10T02:13:57.673Z,7612.00
2023-05-10T02:14:57.707Z,7646.00
2023-05-10T02:15:57.710Z,7713.00
2023-05-10T02:16:57.757Z,7525.00
2023-05-10T02:17:58.021Z,7623.00
2023-05-10T02:18:57.779Z,7771.00
2023-05-10T02:19:57.842Z,7897.00
2023-05-10T02:20:57.859Z,7704.00
2023-05-10T02:21:57.978Z,7605.00
2023-05-10T02:22:57.973Z,7447.00
2023-05-10T02:23:58.011Z,7398.00
2023-05-10T02:24:58.060Z,7351.00
2023-05-10T02:25:58.170Z,7345.00
2023-05-10T02:26:58.208Z,7487.00
2023-05-10T02:27:58.224Z,7471.00
2023-05-10T02:28:58.255Z,7563.00
2023-05-10T02:29:58.264Z,7571.00
2023-05-10T02:30:58.319Z,7663.00
2023-05-10T02:31:58.488Z,7619.00
2023-05-10T02:32:58.475Z,7604.00
2023-05-10T02:33:58.421Z,7573.00
2023-05-10T02:34:58.502Z,7567.00
2023-05-10T02:35:58.600Z,7593.00
2023-05-10T02:36:58.587Z,7456.00
2023-05-10T02:37:58.575Z,7241.00
2023-05-10T02:38:58.573Z,7241.00
2023-05-10T02:39:58.583Z,7271.00
2023-05-10T02:40:58.634Z,7219.00
2023-05-10T02:41:58.630Z,7122.00
2023-05-10T02:42:58.638Z,7090.00
2023-05-10T02:43:58.653Z,7084.00
2023-05-10T02:44:58.665Z,7092.00
2023-05-10T02:45:58.691Z,7139.00
2023-05-10T02:46:58.666Z,7226.00
2023-05-10T02:47:58.713Z,7235.00
2023-05-10T02:48:58.676Z,7369.00
2023-05-10T02:49:58.761Z,7425.00
2023-05-10T02:50:58.725Z,7484.00
2023-05-10T02:51:58.754Z,7350.00
2023-05-10T02:52:58.782Z,7179.00
2023-05-10T02:53:58.876Z,7126.00
2023-05-10T02:54:58.961Z,7271.00
2023-05-10T02:55:58.976Z,7298.00
2023-05-10T02:56:59.005Z,7317.00
2023-05-10T02:57:58.957Z,7327.00
2023-05-10T02:58:59.058Z,7326.00
2023-05-10T02:59:59.062Z,7333.00
2023-05-10T03:00:59.087Z,7288.00
2023-05-10T03:01:59.095Z,7233.00
2023-05-10T03:02:59.194Z,7170.00
2023-05-10T03:03:59.095Z,7105.00
2023-05-10T03:04:59.426Z,7059.00
2023-05-10T03:05:59.117Z,7010.00
2023-05-10T03:06:59.115Z,7018.00
2023-05-10T03:07:59.143Z,7032.00
2023-05-10T03:08:59.232Z,7051.00
2023-05-10T03:09:59.339Z,7041.00
2023-05-10T03:10:59.353Z,7002.00
2023-05-10T03:11:59.455Z,6982.00
2023-05-10T03:12:59.468Z,7051.00
2023-05-10T03:13:59.469Z,7069.00
2023-05-10T03:14:59.555Z,7059.00
2023-05-10T03:15:59.584Z,7016.00
2023-05-10T03:16:59.550Z,6920.00
2023-05-10T03:17:59.658Z,6890.00
2023-05-10T03:18:59.608Z,6896.00
2023-05-10T03:19:59.683Z,6953.00
2023-05-10T03:20:59.725Z,6912.00
2023-05-10T03:21:59.800Z,6949.00
2023-05-10T03:22:59.846Z,7118.00
2023-05-10T03:23:59.944Z,7174.00
2023-05-10T03:24:59.956Z,7197.00
2023-05-10T03:26:00.015Z,7159.00
2023-05-10T03:27:00.029Z,7136.00
2023-05-10T03:28:00.054Z,7091.00
2023-05-10T03:29:00.124Z,7255.00
2023-05-10T03:30:00.265Z,7366.00
2023-05-10T03:31:00.227Z,7358.00
2023-05-10T03:32:00.261Z,7508.00
2023-05-10T03:33:00.352Z,7640.00
2023-05-10T03:34:00.336Z,7766.00
2023-05-10T03:35:00.337Z,7785.00
2023-05-10T03:36:00.408Z,7835.00
2023-05-10T03:37:00.394Z,7878.00
2023-05-10T03:38:00.415Z,7886.00
2023-05-10T03:39:00.415Z,7957.00
2023-05-10T03:40:00.454Z,7940.00
2023-05-10T03:41:00.439Z,7853.00
2023-05-10T03:42:00.459Z,7764.00
2023-05-10T03:43:00.461Z,7624.00
2023-05-10T03:44:00.459Z,7524.00
2023-05-10T03:45:00.519Z,7384.00
2023-05-10T03:46:00.524Z,7294.00
2023-05-10T03:47:00.727Z,7180.00
2023-05-10T03:48:00.714Z,7301.00
2023-05-10T03:49:00.806Z,7211.00
2023-05-10T03:50:00.748Z,7220.00
2023-05-10T03:51:00.804Z,7287.00
2023-05-10T03:52:00.859Z,7367.00
2023-05-10T03:53:00.871Z,7435.00
2023-05-10T03:54:00.823Z,7468.00
2023-05-10T03:55:00.884Z,7481.00
2023-05-10T03:56:00.833Z,7469.00
2023-05-10T03:57:00.855Z,7470.00
2023-05-10T03:58:00.999Z,7478.00
2023-05-10T03:59:00.909Z,7443.00
2023-05-10T04:00:00.995Z,7367.00
2023-05-10T04:01:00.989Z,7305.00
2023-05-10T04:02:01.064Z,7266.00
2023-05-10T04:03:01.087Z,7190.00
2023-05-10T04:04:01.144Z,7054.00
2023-05-10T04:05:01.157Z,7005.00
2023-05-10T04:06:01.262Z,7011.00
2023-05-10T04:07:01.237Z,7029.00
2023-05-10T04:08:01.276Z,7006.00
2023-05-10T04:09:01.290Z,6970.00
2023-05-10T04:10:01.243Z,6972.00
2023-05-10T04:11:01.292Z,7032.00
2023-05-10T04:12:01.366Z,6996.00
2023-05-10T04:13:01.489Z,6972.00
2023-05-10T04:14:01.528Z,6909.00
2023-05-10T04:15:01.587Z,6821.00
2023-05-10T04:16:01.594Z,6781.00
2023-05-10T04:17:02.250Z,6730.00
2023-05-10T04:18:01.872Z,6734.00
2023-05-10T04:19:01.836Z,6758.00
2023-05-10T04:20:01.878Z,6954.00
2023-05-10T04:21:01.933Z,6871.00
2023-05-10T04:22:01.996Z,6650.00
2023-05-10T04:23:02.054Z,6680.00
2023-05-10T04:24:02.126Z,6696.00
2023-05-10T04:25:02.125Z,6751.00
2023-05-10T04:26:02.175Z,6639.00
2023-05-10T04:27:02.232Z,6592.00
2023-05-10T04:28:02.336Z,6708.00
2023-05-10T04:29:02.351Z,6720.00
2023-05-10T04:30:02.415Z,6751.00
2023-05-10T04:31:02.522Z,6692.00
2023-05-10T04:32:02.570Z,6427.00
2023-05-10T04:33:02.760Z,6463.00
2023-05-10T04:34:02.707Z,6465.00
2023-05-10T04:35:02.796Z,6375.00
2023-05-10T04:36:02.824Z,6336.00
2023-05-10T04:37:02.910Z,6218.00
2023-05-10T04:38:02.911Z,6230.00
2023-05-10T04:39:02.961Z,6281.00
2023-05-10T04:40:03.050Z,6295.00
2023-05-10T04:41:03.086Z,6332.00
2023-05-10T04:42:03.150Z,6220.00
2023-05-10T04:43:03.198Z,6186.00
2023-05-10T04:44:03.267Z,6109.00
2023-05-10T04:45:03.265Z,6112.00
2023-05-10T04:46:03.415Z,6113.00
2023-05-10T04:47:03.327Z,6044.00
2023-05-10T04:48:03.434Z,6141.00
2023-05-10T04:49:03.481Z,6087.00
2023-05-10T04:50:03.518Z,6118.00
2023-05-10T04:51:03.632Z,6218.00
2023-05-10T04:52:03.642Z,6405.00
2023-05-10T04:53:03.739Z,6531.00
2023-05-10T04:54:06.645Z,6619.00
2023-05-10T04:55:03.748Z,6644.00
2023-05-10T04:56:03.732Z,6517.00
2023-05-10T04:57:03.749Z,6536.00
2023-05-10T04:58:03.719Z,6582.00
2023-05-10T04:59:03.712Z,6694.00
2023-05-10T05:00:03.719Z,6875.00
2023-05-10T05:02:31.442Z,500.00
2023-05-10T05:03:23.777Z,500.00
2023-05-10T05:04:23.719Z,500.00
2023-05-10T05:05:23.737Z,500.00
2023-05-10T05:06:23.728Z,500.00
2023-05-10T05:07:23.703Z,500.00
2023-05-10T05:08:23.640Z,499.00
2023-05-10T05:09:23.663Z,455.00
2023-05-10T05:10:23.667Z,448.00
2023-05-10T05:11:23.680Z,530.00
2023-05-10T05:12:23.672Z,565.00
2023-05-10T05:13:23.845Z,543.00
2023-05-10T05:14:23.608Z,557.00
2023-05-10T05:15:23.644Z,600.00
2023-05-10T05:16:23.683Z,579.00
2023-05-10T05:17:23.627Z,583.00
2023-05-10T05:18:23.727Z,609.00
2023-05-10T05:19:23.725Z,654.00
2023-05-10T05:20:23.626Z,749.00
2023-05-10T05:21:23.637Z,1137.00
2023-05-10T05:22:23.632Z,1116.00
2023-05-10T05:23:23.611Z,1308.00
2023-05-10T05:24:23.665Z,1402.00
2023-05-10T05:25:23.629Z,1241.00
2023-05-10T05:26:23.603Z,1237.00
2023-05-10T05:27:23.682Z,1320.00
2023-05-10T05:28:23.687Z,1531.00
2023-05-10T05:29:23.785Z,1569.00
2023-05-10T05:30:23.808Z,1621.00
2023-05-10T05:31:23.947Z,1616.00
2023-05-10T05:32:23.967Z,1727.00
2023-05-10T05:33:24.020Z,1618.00
2023-05-10T05:34:24.462Z,1870.00
2023-05-10T05:35:24.108Z,2352.00
2023-05-10T05:36:24.142Z,2411.00
2023-05-10T05:37:24.165Z,2348.00
2023-05-10T05:38:24.122Z,2462.00
2023-05-10T05:39:24.374Z,2680.00
2023-05-10T05:40:24.272Z,2501.00
2023-05-10T05:41:24.384Z,2374.00
2023-05-10T05:42:24.396Z,2097.00
2023-05-10T05:43:25.391Z,2180.00
2023-05-10T05:44:24.907Z,2046.00
2023-05-10T05:45:25.337Z,1996.00
2023-05-10T05:47:44.147Z,500.00
2023-05-10T05:48:44.115Z,500.00
2023-05-10T05:49:43.899Z,500.00
2023-05-10T05:50:43.865Z,500.00
2023-05-10T05:51:43.892Z,500.00
2023-05-10T05:52:43.851Z,508.00
2023-05-10T05:53:44.077Z,499.00
2023-05-10T05:54:43.838Z,431.00
2023-05-10T05:55:43.850Z,400.00
2023-05-10T05:56:43.870Z,400.00
2023-05-10T05:57:43.807Z,400.00
2023-05-10T05:58:43.856Z,400.00
2023-05-10T05:59:44.105Z,407.00
2023-05-10T06:00:43.793Z,449.00
2023-05-10T06:01:43.835Z,502.00
2023-05-10T06:02:43.875Z,558.00
2023-05-10T06:03:43.877Z,544.00
2023-05-10T06:04:44.910Z,601.00
2023-05-10T06:05:43.786Z,815.00
2023-05-10T06:06:43.805Z,1096.00
2023-05-10T06:07:43.739Z,1051.00
2023-05-10T06:08:43.734Z,972.00
2023-05-10T06:09:43.767Z,1403.00
2023-05-10T06:10:43.722Z,1114.00
2023-05-10T06:11:43.708Z,1084.00
2023-05-10T06:12:43.704Z,1050.00
2023-05-10T06:13:43.699Z,1449.00
2023-05-10T06:14:43.699Z,1535.00
2023-05-10T06:15:43.793Z,1569.00
2023-05-10T06:16:43.754Z,1369.00
2023-05-10T06:17:43.769Z,1286.00
2023-05-10T06:18:43.710Z,1184.00
2023-05-10T06:19:43.702Z,1293.00
2023-05-10T06:20:43.693Z,1355.00
2023-05-10T06:21:43.613Z,1612.00
2023-05-10T06:22:44.562Z,1487.00
2023-05-10T06:23:44.058Z,1440.00
2023-05-10T06:24:43.636Z,1285.00
2023-05-10T06:25:43.634Z,1408.00
2023-05-10T06:26:43.634Z,1147.00
2023-05-10T06:27:44.344Z,1023.00
2023-05-10T06:28:43.611Z,1119.00
2023-05-10T06:29:44.135Z,1215.00
2023-05-10T06:30:43.580Z,1252.00
2023-05-10T06:31:43.639Z,1269.00
2023-05-10T06:32:43.608Z,1277.00
2023-05-10T06:33:43.637Z,1293.00
2023-05-10T06:34:43.562Z,1287.00
2023-05-10T06:35:43.674Z,1349.00
2023-05-10T06:36:43.524Z,1494.00
2023-05-10T06:37:43.550Z,1363.00
2023-05-10T06:38:43.565Z,1200.00
2023-05-10T06:39:43.551Z,1087.00
2023-05-10T06:40:43.761Z,1160.00
2023-05-10T06:41:43.686Z,1346.00
2023-05-10T06:42:43.721Z,1374.00
2023-05-10T06:43:43.787Z,1314.00
2023-05-10T06:44:43.856Z,1237.00
2023-05-10T06:45:43.892Z,1244.00
2023-05-10T06:48:03.518Z,500.00
2023-05-10T06:49:04.452Z,500.00
2023-05-10T06:50:03.410Z,500.00
2023-05-10T06:51:03.414Z,500.00
2023-05-10T06:52:03.396Z,500.00
2023-05-10T06:53:03.402Z,528.00
2023-05-10T06:54:03.417Z,590.00
2023-05-10T06:55:03.429Z,618.00
2023-05-10T06:56:04.417Z,552.00
2023-05-10T06:57:04.165Z,556.00
2023-05-10T06:58:03.419Z,508.00
2023-05-10T06:59:03.454Z,521.00
2023-05-10T07:00:03.609Z,500.00
2023-05-10T07:01:03.610Z,475.00
2023-05-10T07:02:03.668Z,549.00
2023-05-10T07:03:03.720Z,564.00
2023-05-10T07:04:04.043Z,477.00
2023-05-10T07:05:03.833Z,400.00
2023-05-10T07:06:03.904Z,400.00
2023-05-10T07:07:03.936Z,400.00
2023-05-10T07:08:03.970Z,400.00
2023-05-10T07:09:04.027Z,400.00
2023-05-10T07:10:04.088Z,413.00
2023-05-10T07:11:04.114Z,495.00
2023-05-10T07:12:04.187Z,500.00
2023-05-10T07:13:04.196Z,514.00
2023-05-10T07:14:04.209Z,519.00
2023-05-10T07:15:04.253Z,480.00
2023-05-10T07:16:04.235Z,539.00
2023-05-10T07:17:04.243Z,555.00
2023-05-10T07:18:04.489Z,480.00
2023-05-10T07:19:04.302Z,490.00
2023-05-10T07:20:04.530Z,501.00
2023-05-10T07:21:04.382Z,484.00
2023-05-10T07:22:04.424Z,400.00
2023-05-10T07:23:04.472Z,453.00
2023-05-10T07:24:04.576Z,400.00
2023-05-10T07:25:04.802Z,400.00
2023-05-10T07:26:04.662Z,508.00
2023-05-10T07:27:04.704Z,523.00
2023-05-10T07:28:04.664Z,630.00
2023-05-10T07:29:04.686Z,954.00
2023-05-10T07:30:04.776Z,983.00
2023-05-10T07:31:04.797Z,854.00
2023-05-10T07:32:04.812Z,770.00
2023-05-10T07:33:04.772Z,773.00
2023-05-10T07:34:04.809Z,504.00
2023-05-10T07:35:04.825Z,447.00
2023-05-10T07:36:04.757Z,522.00
2023-05-10T07:37:04.781Z,541.00
2023-05-10T07:38:04.783Z,584.00
2023-05-10T07:39:04.793Z,711.00
2023-05-10T07:40:04.868Z,1277.00
2023-05-10T07:41:04.838Z,1615.00
2023-05-10T07:42:04.911Z,1289.00
2023-05-10T07:43:04.965Z,1026.00
2023-05-10T07:44:05.012Z,930.00
2023-05-10T07:45:05.085Z,773.00
2023-05-10T07:46:05.213Z,605.00
2023-05-10T07:47:05.169Z,616.00
2023-05-10T07:48:05.265Z,886.00
2023-05-10T07:49:05.269Z,1183.00
2023-05-10T07:50:05.537Z,645.00
2023-05-10T07:51:05.348Z,492.00
2023-05-10T07:52:05.367Z,476.00
2023-05-10T07:53:05.449Z,601.00
2023-05-10T07:54:05.566Z,815.00
2023-05-10T07:55:05.571Z,971.00
2023-05-10T07:56:05.620Z,904.00
2023-05-10T07:57:05.629Z,644.00
2023-05-10T07:58:05.685Z,580.00
2023-05-10T07:59:05.635Z,478.00
2023-05-10T08:00:05.720Z,400.00
2023-05-10T08:01:05.757Z,400.00
2023-05-10T08:02:05.854Z,456.00
2023-05-10T08:03:05.909Z,610.00
2023-05-10T08:04:05.920Z,931.00
2023-05-10T08:05:05.855Z,1727.00
2023-05-10T08:06:05.912Z,1695.00
2023-05-10T08:07:05.975Z,990.00
2023-05-10T08:08:06.010Z,658.00
2023-05-10T08:09:06.043Z,648.00
2023-05-10T08:10:06.077Z,899.00
2023-05-10T08:11:06.074Z,1141.00
2023-05-10T08:12:06.195Z,1479.00
2023-05-10T08:13:06.253Z,1540.00
2023-05-10T08:14:06.234Z,1725.00
2023-05-10T08:15:06.260Z,1815.00
2023-05-10T08:16:06.409Z,1962.00
2023-05-10T08:17:06.941Z,2008.00
2023-05-10T08:18:06.511Z,2019.00
2023-05-10T08:19:06.513Z,2152.00
2023-05-10T08:20:06.612Z,2096.00
2023-05-10T08:21:06.526Z,1972.00
2023-05-10T08:22:06.577Z,2327.00
2023-05-10T08:23:06.583Z,2523.00
2023-05-10T08:24:06.626Z,2318.00
2023-05-10T08:25:07.420Z,2279.00
2023-05-10T08:26:06.811Z,2283.00
2023-05-10T08:27:06.822Z,2322.00
2023-05-10T08:28:06.846Z,2499.00
2023-05-10T08:29:06.845Z,2581.00
2023-05-10T08:30:07.143Z,2862.00
2023-05-10T08:31:07.017Z,2821.00
2023-05-10T08:32:06.982Z,2738.00
2023-05-10T08:33:07.105Z,2664.00
2023-05-10T08:34:07.062Z,2273.00
2023-05-10T08:35:07.154Z,2288.00
2023-05-10T08:36:07.622Z,2279.00
2023-05-10T08:37:07.185Z,2182.00
2023-05-10T08:38:07.262Z,2162.00
2023-05-10T08:39:13.532Z,1962.00
2023-05-10T08:40:08.230Z,1972.00
2023-05-10T08:41:07.306Z,2009.00
2023-05-10T08:42:07.229Z,2048.00
2023-05-10T08:43:07.384Z,2323.00
2023-05-10T08:44:07.205Z,3126.00
2023-05-10T08:45:07.530Z,2713.00
2023-05-10T08:46:07.825Z,2532.00
2023-05-10T08:47:07.327Z,2175.00
2023-05-10T08:48:07.242Z,2269.00
2023-05-10T08:49:07.190Z,2174.00
2023-05-10T08:50:07.207Z,1955.00
2023-05-10T08:51:07.607Z,1713.00
2023-05-10T08:52:07.265Z,1394.00
2023-05-10T08:53:07.292Z,1143.00
2023-05-10T08:54:07.302Z,1012.00
2023-05-10T08:55:07.344Z,1166.00
2023-05-10T08:56:07.388Z,1218.00
2023-05-10T08:57:07.404Z,1340.00
2023-05-10T08:58:07.367Z,1076.00
2023-05-10T08:59:07.372Z,884.00
2023-05-10T09:00:07.450Z,634.00
2023-05-10T09:01:07.844Z,601.00
2023-05-10T09:02:07.473Z,867.00
2023-05-10T09:03:07.571Z,1024.00
2023-05-10T09:04:07.692Z,938.00
2023-05-10T09:05:07.686Z,671.00
2023-05-10T09:06:08.125Z,789.00
2023-05-10T09:07:07.656Z,924.00
2023-05-10T09:08:07.662Z,894.00
2023-05-10T09:09:07.669Z,637.00
2023-05-10T09:10:07.716Z,602.00
2023-05-10T09:11:08.544Z,745.00
2023-05-10T09:12:08.717Z,447.00
2023-05-10T09:13:07.723Z,460.00
2023-05-10T09:14:07.651Z,501.00
2023-05-10T09:15:07.719Z,523.00
2023-05-10T09:16:20.286Z,525.00
2023-05-10T09:17:08.754Z,526.00
2023-05-10T09:18:07.743Z,529.00
2023-05-10T09:19:07.752Z,563.00
2023-05-10T09:20:07.708Z,1302.00
2023-05-10T09:21:07.692Z,1587.00
2023-05-10T09:22:07.685Z,759.00
2023-05-10T09:23:07.736Z,588.00
2023-05-10T09:24:07.754Z,491.00
2023-05-10T09:25:07.814Z,539.00
2023-05-10T09:26:07.856Z,613.00
2023-05-10T09:27:07.935Z,495.00
2023-05-10T09:28:07.992Z,549.00
2023-05-10T09:29:08.090Z,579.00
2023-05-10T09:30:08.064Z,598.00
2023-05-10T09:31:08.168Z,577.00
2023-05-10T09:32:08.105Z,494.00
2023-05-10T09:33:08.137Z,540.00
2023-05-10T09:34:08.205Z,539.00
2023-05-10T09:35:08.126Z,522.00
2023-05-10T09:36:08.613Z,489.00
2023-05-10T09:37:08.133Z,506.00
2023-05-10T09:38:08.162Z,608.00
2023-05-10T09:39:08.168Z,709.00
2023-05-10T09:40:08.228Z,646.00
2023-05-10T09:41:08.190Z,639.00
2023-05-10T09:42:08.223Z,610.00
2023-05-10T09:43:08.410Z,638.00
2023-05-10T09:44:08.313Z,767.00
2023-05-10T09:45:08.363Z,886.00
2023-05-10T09:46:08.387Z,1054.00
2023-05-10T09:47:08.421Z,1645.00
2023-05-10T09:48:08.459Z,1906.00
2023-05-10T09:49:08.492Z,2271.00
2023-05-10T09:50:08.506Z,2393.00
2023-05-10T09:51:08.647Z,2377.00
2023-05-10T09:52:08.605Z,2217.00
2023-05-10T09:53:08.578Z,2877.00
2023-05-10T09:54:08.633Z,2903.00
2023-05-10T09:55:08.654Z,2724.00
2023-05-10T09:56:08.647Z,2498.00
2023-05-10T09:57:08.671Z,2544.00
2023-05-10T09:58:08.714Z,2779.00
2023-05-10T09:59:09.461Z,2769.00
2023-05-10T10:00:08.729Z,2558.00
2023-05-10T10:01:08.839Z,2772.00
2023-05-10T10:02:08.718Z,2698.00
2023-05-10T10:03:08.822Z,2517.00
2023-05-10T10:04:08.730Z,2216.00
2023-05-10T10:05:08.762Z,2428.00
2023-05-10T10:06:18.840Z,2467.00
2023-05-10T10:07:09.706Z,2468.00
2023-05-10T10:08:08.666Z,2282.00
2023-05-10T10:09:08.706Z,2230.00
2023-05-10T10:10:08.733Z,2136.00
2023-05-10T10:11:09.099Z,2142.00
2023-05-10T10:12:08.641Z,2244.00
2023-05-10T10:13:08.620Z,2153.00
2023-05-10T10:14:08.704Z,1605.00
2023-05-10T10:15:08.656Z,1333.00
2023-05-10T10:16:08.662Z,1166.00
2023-05-10T10:17:09.090Z,818.00
2023-05-10T10:18:08.658Z,1173.00
2023-05-10T10:19:08.614Z,1255.00
2023-05-10T10:20:10.466Z,1193.00
2023-05-10T10:21:08.572Z,1047.00
2023-05-10T10:22:08.621Z,1218.00
2023-05-10T10:23:08.556Z,1403.00
2023-05-10T10:24:08.578Z,1931.00
2023-05-10T10:25:08.563Z,1986.00
2023-05-10T10:26:08.644Z,2143.00
2023-05-10T10:27:08.568Z,1442.00
2023-05-10T10:28:08.513Z,1022.00
2023-05-10T10:29:08.585Z,1093.00
2023-05-10T10:30:08.587Z,639.00
2023-05-10T10:31:08.584Z,458.00
2023-05-10T10:32:08.605Z,450.00
2023-05-10T10:33:20.183Z,541.00
2023-05-10T10:34:09.534Z,544.00
2023-05-10T10:35:08.530Z,547.00
2023-05-10T10:36:08.508Z,547.00
2023-05-10T10:37:08.628Z,567.00
2023-05-10T10:38:08.532Z,635.00
2023-05-10T10:39:08.546Z,646.00
2023-05-10T10:40:08.449Z,1363.00
2023-05-10T10:41:08.446Z,1618.00
2023-05-10T10:42:08.637Z,1925.00
2023-05-10T10:43:08.467Z,2212.00
2023-05-10T10:44:08.452Z,1920.00
2023-05-10T10:45:08.481Z,1661.00
2023-05-10T10:46:08.440Z,1813.00
2023-05-10T10:47:08.691Z,2619.00
2023-05-10T10:48:08.542Z,1374.00
2023-05-10T10:49:08.476Z,1996.00
2023-05-10T10:50:08.552Z,2046.00
2023-05-10T10:51:10.087Z,1877.00
2023-05-10T10:52:08.532Z,1991.00
2023-05-10T10:53:08.550Z,1840.00
2023-05-10T10:54:08.619Z,1953.00
2023-05-10T10:55:08.629Z,3218.00
2023-05-10T10:56:08.678Z,3351.00
2023-05-10T10:57:08.716Z,2406.00
2023-05-10T10:58:08.642Z,2664.00
2023-05-10T10:59:08.688Z,2462.00
2023-05-10T11:00:08.724Z,1485.00
2023-05-10T11:01:08.756Z,574.00
2023-05-10T11:02:08.812Z,400.00
2023-05-10T11:03:08.916Z,400.00
2023-05-10T11:04:08.818Z,472.00
2023-05-10T11:05:08.822Z,463.00
2023-05-10T11:06:08.892Z,569.00
2023-05-10T11:07:09.155Z,622.00
2023-05-10T11:08:08.943Z,618.00
2023-05-10T11:09:08.985Z,657.00
2023-05-10T11:10:08.949Z,852.00
2023-05-10T11:11:09.000Z,1106.00
2023-05-10T11:12:09.237Z,1394.00
2023-05-10T11:13:09.101Z,833.00
2023-05-10T11:14:09.145Z,814.00
2023-05-10T11:15:10.448Z,918.00
2023-05-10T11:16:09.242Z,1026.00
2023-05-10T11:17:09.298Z,763.00
2023-05-10T11:18:09.343Z,808.00
2023-05-10T11:19:09.462Z,651.00
2023-05-10T11:20:09.458Z,863.00
2023-05-10T11:21:09.490Z,768.00
2023-05-10T11:22:09.613Z,663.00
2023-05-10T11:23:09.612Z,915.00
2023-05-10T11:24:09.662Z,1576.00
2023-05-10T11:25:09.679Z,1764.00
2023-05-10T11:26:09.860Z,1720.00
2023-05-10T11:27:10.378Z,1762.00
2023-05-10T11:28:09.990Z,1354.00
2023-05-10T11:29:10.197Z,1357.00
2023-05-10T11:30:09.953Z,1362.00
2023-05-10T11:31:09.924Z,1569.00
2023-05-10T11:32:10.229Z,2128.00
2023-05-10T11:33:10.002Z,2950.00
2023-05-10T11:34:09.890Z,4947.00
2023-05-10T11:35:09.901Z,4650.00
2023-05-10T11:36:09.896Z,3772.00
2023-05-10T11:37:09.868Z,3534.00
2023-05-10T11:38:10.151Z,3401.00
2023-05-10T11:39:09.889Z,3265.00
2023-05-10T11:40:09.883Z,2458.00
2023-05-10T11:41:10.030Z,2251.00
2023-05-10T11:42:09.901Z,2171.00
2023-05-10T11:43:10.123Z,2557.00
2023-05-10T11:44:09.964Z,3241.00
2023-05-10T11:45:10.034Z,3507.00
2023-05-10T11:46:10.056Z,3023.00
2023-05-10T11:47:10.117Z,2036.00
2023-05-10T11:48:10.201Z,2068.00
2023-05-10T11:49:10.149Z,2351.00
2023-05-10T11:50:10.159Z,2564.00
2023-05-10T11:51:10.186Z,2259.00
2023-05-10T11:52:10.209Z,1898.00
2023-05-10T11:53:10.228Z,1629.00
2023-05-10T11:54:10.292Z,1528.00
2023-05-10T11:55:10.349Z,1335.00
2023-05-10T11:56:10.362Z,1575.00
2023-05-10T11:57:10.408Z,1781.00
2023-05-10T11:58:10.493Z,1544.00
2023-05-10T11:59:10.499Z,1473.00
2023-05-10T12:00:10.567Z,1623.00
2023-05-10T12:01:10.606Z,1810.00
2023-05-10T12:02:10.695Z,1798.00
2023-05-10T12:03:11.221Z,2103.00
2023-05-10T12:04:11.001Z,2428.00
2023-05-10T12:05:10.900Z,2524.00
2023-05-10T12:06:10.932Z,2602.00
2023-05-10T12:07:10.927Z,2777.00
2023-05-10T12:08:11.002Z,2592.00
2023-05-10T12:09:11.057Z,2434.00
2023-05-10T12:10:11.138Z,2108.00
2023-05-10T12:11:11.116Z,2269.00
2023-05-10T12:12:11.132Z,2069.00
2023-05-10T12:13:11.158Z,2063.00
2023-05-10T12:14:11.162Z,2313.00
2023-05-10T12:15:11.173Z,2461.00
2023-05-10T12:16:11.234Z,2239.00